createdAt,value
2019-03-28T00:00:08.069Z,7.17
2019-03-28T00:02:37.270Z,7.26
2019-03-28T00:05:06.689Z,7.29
2019-03-28T00:07:36.172Z,7.40
2019-03-28T00:10:05.693Z,7.30
2019-03-28T00:12:34.909Z,7.19
2019-03-28T00:15:04.410Z,7.15
2019-03-28T00:17:33.725Z,7.15
2019-03-28T00:20:04.333Z,7.13
2019-03-28T00:22:57.036Z,7.13
2019-03-28T00:25:27.402Z,7.10
2019-03-28T00:27:56.668Z,7.08
2019-03-28T00:30:25.951Z,7.14
2019-03-28T00:32:55.186Z,7.12
2019-03-28T00:35:24.534Z,7.11
2019-03-28T00:37:53.779Z,7.12
2019-03-28T00:40:23.087Z,7.09
2019-03-28T00:42:52.599Z,7.08
2019-03-28T00:45:21.854Z,7.08
2019-03-28T00:47:51.135Z,7.07
2019-03-28T00:50:20.614Z,7.07
2019-03-28T00:52:49.858Z,7.12
2019-03-28T00:55:19.118Z,7.11
2019-03-28T00:57:48.412Z,7.05
2019-03-28T01:00:18.065Z,7.05
2019-03-28T01:02:47.803Z,7.12
2019-03-28T01:05:17.388Z,7.13
2019-03-28T01:07:47.268Z,7.15
2019-03-28T01:10:16.985Z,7.13
2019-03-28T01:12:46.224Z,7.16
2019-03-28T01:15:15.613Z,7.11
2019-03-28T01:17:44.842Z,7.08
2019-03-28T01:20:14.433Z,7.05
2019-03-28T01:22:43.776Z,7.13
2019-03-28T01:25:13.110Z,7.08
2019-03-28T01:27:42.596Z,7.10
2019-03-28T01:30:12.119Z,7.21
2019-03-28T01:32:41.370Z,7.30
2019-03-28T01:35:10.761Z,7.35
2019-03-28T01:37:40.231Z,7.37
2019-03-28T01:40:09.792Z,7.23
2019-03-28T01:42:39.552Z,7.29
2019-03-28T01:45:09.197Z,7.27
2019-03-28T01:47:38.451Z,7.18
2019-03-28T01:50:09.312Z,7.15
2019-03-28T01:52:38.809Z,7.12
2019-03-28T01:55:08.426Z,7.09
2019-03-28T01:57:38.286Z,7.04
2019-03-28T02:00:08.452Z,7.02
2019-03-28T02:02:37.953Z,7.00
2019-03-28T02:05:08.077Z,7.05
2019-03-28T02:07:37.553Z,7.04
2019-03-28T02:10:07.672Z,7.05
2019-03-28T02:12:36.925Z,7.08
2019-03-28T02:15:07.202Z,7.06
2019-03-28T02:17:37.259Z,7.09
2019-03-28T02:20:07.122Z,7.24
2019-03-28T02:22:36.377Z,7.31
2019-03-28T02:25:06.030Z,7.20
2019-03-28T02:27:35.541Z,7.21
2019-03-28T02:30:06.325Z,7.30
2019-03-28T02:32:35.823Z,7.22
2019-03-28T02:35:05.966Z,7.26
2019-03-28T02:37:35.211Z,7.29
2019-03-28T02:40:05.061Z,7.30
2019-03-28T02:42:34.297Z,7.25
2019-03-28T02:45:04.275Z,7.18
2019-03-28T02:47:33.493Z,7.28
2019-03-28T02:50:02.742Z,7.30
2019-03-28T02:52:32.451Z,7.27
2019-03-28T02:55:02.204Z,7.29
2019-03-28T02:57:40.952Z,7.36
2019-03-28T03:00:02.712Z,7.26
2019-03-28T03:02:32.687Z,7.34
2019-03-28T03:05:02.373Z,7.29
2019-03-28T03:07:33.343Z,7.23
2019-03-28T03:10:02.856Z,7.28
2019-03-28T03:12:32.080Z,7.21
2019-03-28T03:15:01.804Z,7.22
2019-03-28T03:17:31.037Z,7.16
2019-03-28T03:20:00.386Z,7.24
2019-03-28T03:22:29.634Z,7.12
2019-03-28T03:24:59.120Z,7.19
2019-03-28T03:27:28.608Z,7.13
2019-03-28T03:29:58.352Z,7.14
2019-03-28T03:32:27.827Z,7.24
2019-03-28T03:34:57.107Z,7.19
2019-03-28T03:37:26.838Z,7.11
2019-03-28T03:39:56.368Z,7.13
2019-03-28T03:42:26.195Z,7.10
2019-03-28T03:44:55.440Z,7.02
2019-03-28T03:47:24.750Z,6.96
2019-03-28T03:49:54.465Z,6.96
2019-03-28T03:52:23.961Z,6.85
2019-03-28T03:54:53.451Z,6.81
2019-03-28T03:57:22.978Z,6.79
2019-03-28T03:59:52.186Z,6.91
2019-03-28T04:02:21.649Z,6.92
2019-03-28T04:04:51.120Z,6.87
2019-03-28T04:07:20.355Z,6.86
2019-03-28T04:09:49.585Z,6.79
2019-03-28T04:12:19.062Z,6.83
2019-03-28T04:14:48.295Z,6.89
2019-03-28T04:17:18.297Z,6.93
2019-03-28T04:19:48.247Z,6.90
2019-03-28T04:22:17.784Z,6.76
2019-03-28T04:24:47.727Z,6.72
2019-03-28T04:27:17.306Z,6.68
2019-03-28T04:29:46.517Z,6.77
2019-03-28T04:32:15.986Z,6.76
2019-03-28T04:34:45.229Z,6.73
2019-03-28T04:37:14.682Z,6.65
2019-03-28T04:39:44.077Z,6.63
2019-03-28T04:42:13.298Z,6.72
2019-03-28T04:44:42.528Z,6.82
2019-03-28T04:47:12.011Z,6.82
2019-03-28T04:49:41.720Z,6.73
2019-03-28T04:52:11.447Z,6.69
2019-03-28T04:54:40.711Z,6.66
2019-03-28T04:57:10.184Z,6.67
2019-03-28T04:59:39.695Z,6.64
2019-03-28T05:02:09.014Z,6.62
2019-03-28T05:04:38.496Z,6.61
2019-03-28T05:07:07.993Z,6.58
2019-03-28T05:09:37.718Z,6.64
2019-03-28T05:12:07.212Z,6.80
2019-03-28T05:14:36.439Z,6.77
2019-03-28T05:17:05.658Z,6.94
2019-03-28T05:19:35.452Z,7.00
2019-03-28T05:22:04.666Z,7.01
2019-03-28T05:24:34.165Z,6.89
2019-03-28T05:27:03.394Z,6.87
2019-03-28T05:29:32.644Z,6.82
2019-03-28T05:32:01.888Z,6.78
2019-03-28T05:34:31.630Z,6.76
2019-03-28T05:37:00.934Z,6.86
2019-03-28T05:39:30.193Z,6.88
2019-03-28T05:42:01.813Z,6.85
2019-03-28T05:44:31.563Z,6.81
2019-03-28T05:47:00.792Z,6.87
2019-03-28T05:49:30.324Z,6.82
2019-03-28T05:52:00.029Z,6.77
2019-03-28T05:54:29.354Z,6.84
2019-03-28T05:56:59.065Z,6.86
2019-03-28T05:59:28.320Z,6.83
2019-03-28T06:01:58.271Z,6.80
2019-03-28T06:04:28.236Z,6.83
2019-03-28T06:06:57.458Z,6.77
2019-03-28T06:09:26.682Z,6.87
2019-03-28T06:11:56.405Z,7.02
2019-03-28T06:14:26.927Z,6.85
2019-03-28T06:16:56.145Z,6.90
2019-03-28T06:19:25.630Z,6.93
2019-03-28T06:21:55.086Z,6.94
2019-03-28T06:24:24.570Z,7.05
2019-03-28T06:26:54.038Z,7.04
2019-03-28T06:29:24.474Z,7.18
2019-03-28T06:31:55.878Z,7.13
2019-03-28T06:34:26.440Z,7.14
2019-03-28T06:36:56.059Z,7.14
2019-03-28T06:39:25.822Z,7.15
2019-03-28T06:41:55.292Z,7.18
2019-03-28T06:44:24.534Z,7.13
2019-03-28T06:46:54.057Z,7.08
2019-03-28T06:49:23.565Z,7.00
2019-03-28T06:51:53.046Z,7.01
2019-03-28T06:54:24.277Z,7.09
2019-03-28T06:56:53.772Z,7.09
2019-03-28T06:59:36.274Z,7.13
2019-03-28T07:01:54.214Z,7.19
2019-03-28T07:04:23.692Z,7.22
2019-03-28T07:06:53.326Z,7.27
2019-03-28T07:09:25.695Z,7.40
2019-03-28T07:11:54.984Z,7.36
2019-03-28T07:14:25.393Z,7.30
2019-03-28T07:16:56.167Z,7.24
2019-03-28T07:19:25.700Z,7.42
2019-03-28T07:21:54.960Z,7.69
2019-03-28T07:24:24.185Z,7.75
2019-03-28T07:26:53.569Z,7.67
2019-03-28T07:29:23.065Z,7.65
2019-03-28T07:31:52.560Z,7.58
2019-03-28T07:34:21.831Z,7.39
2019-03-28T07:36:51.051Z,7.48
2019-03-28T07:39:20.910Z,7.45
2019-03-28T07:41:50.123Z,7.60
2019-03-28T07:44:19.898Z,7.50
2019-03-28T07:46:49.403Z,7.50
2019-03-28T07:49:18.644Z,7.45
2019-03-28T07:51:48.306Z,7.48
2019-03-28T07:54:18.390Z,7.53
2019-03-28T07:56:48.289Z,7.59
2019-03-28T07:59:17.526Z,7.64
2019-03-28T08:01:47.267Z,7.76
2019-03-28T08:04:17.305Z,7.81
2019-03-28T08:06:50.063Z,7.85
2019-03-28T08:09:17.855Z,7.94
2019-03-28T08:11:48.422Z,8.16
2019-03-28T08:14:17.670Z,8.20
2019-03-28T08:16:46.938Z,8.24
2019-03-28T08:19:16.244Z,8.40
2019-03-28T08:21:46.334Z,8.27
2019-03-28T08:24:15.596Z,8.28
2019-03-28T08:26:45.425Z,8.32
2019-03-28T08:29:14.670Z,8.30
2019-03-28T08:31:45.797Z,8.36
2019-03-28T08:34:15.354Z,8.58
2019-03-28T08:36:45.063Z,8.60
2019-03-28T08:39:14.738Z,8.74
2019-03-28T08:41:44.626Z,8.94
2019-03-28T08:44:13.908Z,9.00
2019-03-28T08:46:43.547Z,8.98
2019-03-28T08:49:12.866Z,9.03
2019-03-28T08:51:42.437Z,9.07
2019-03-28T08:54:11.677Z,8.98
2019-03-28T08:56:41.239Z,8.96
2019-03-28T08:59:11.073Z,8.98
2019-03-28T09:01:40.673Z,8.99
2019-03-28T09:04:09.931Z,8.89
2019-03-28T09:06:39.576Z,8.79
2019-03-28T09:09:10.428Z,8.77
2019-03-28T09:11:40.344Z,8.91
2019-03-28T09:14:09.830Z,9.07
2019-03-28T09:16:39.429Z,8.99
2019-03-28T09:19:09.049Z,9.18
2019-03-28T09:21:38.392Z,9.19
2019-03-28T09:24:07.878Z,9.33
2019-03-28T09:26:37.380Z,9.42
2019-03-28T09:29:06.701Z,9.51
2019-03-28T09:31:36.008Z,9.51
2019-03-28T09:34:05.269Z,9.31
2019-03-28T09:36:35.023Z,9.64
2019-03-28T09:39:07.442Z,9.65
2019-03-28T09:41:36.677Z,9.75
2019-03-28T09:44:06.152Z,9.75
2019-03-28T09:46:35.760Z,9.88
2019-03-28T09:49:05.655Z,9.72
2019-03-28T09:51:35.405Z,9.81
2019-03-28T09:54:05.393Z,9.77
2019-03-28T09:56:34.677Z,10.04
2019-03-28T09:59:03.966Z,10.17
2019-03-28T10:01:33.840Z,10.27
2019-03-28T10:04:06.295Z,10.45
2019-03-28T10:06:34.778Z,10.66
2019-03-28T10:09:05.473Z,10.75
2019-03-28T10:11:34.968Z,10.74
2019-03-28T10:14:04.315Z,10.96
2019-03-28T10:16:33.813Z,10.90
2019-03-28T10:19:03.368Z,10.74
2019-03-28T10:21:33.312Z,10.97
2019-03-28T10:24:04.060Z,10.88
2019-03-28T10:26:33.816Z,10.84
2019-03-28T10:29:03.270Z,11.22
2019-03-28T10:31:32.978Z,11.15
2019-03-28T10:34:02.632Z,10.97
2019-03-28T10:36:32.190Z,11.01
2019-03-28T10:39:02.087Z,10.81
2019-03-28T10:41:32.132Z,10.87
2019-03-28T10:44:01.725Z,10.83
2019-03-28T10:46:31.270Z,10.96
2019-03-28T10:49:01.327Z,10.99
2019-03-28T10:51:30.560Z,10.98
2019-03-28T10:54:00.055Z,10.95
2019-03-28T10:56:32.451Z,10.96
2019-03-28T10:59:01.673Z,10.95
2019-03-28T11:01:47.566Z,10.77
2019-03-28T11:04:03.300Z,10.87
2019-03-28T11:06:32.935Z,11.12
2019-03-28T11:09:03.613Z,11.40
2019-03-28T11:11:33.136Z,11.55
2019-03-28T11:14:02.958Z,11.26
2019-03-28T11:16:32.563Z,11.44
2019-03-28T11:19:02.173Z,11.53
2019-03-28T11:21:34.174Z,11.27
2019-03-28T11:24:02.692Z,11.13
2019-03-28T11:26:31.908Z,11.21
2019-03-28T11:29:01.239Z,11.19
2019-03-28T11:31:30.468Z,11.38
2019-03-28T11:33:59.705Z,11.44
2019-03-28T11:36:29.252Z,11.41
2019-03-28T11:38:58.782Z,11.35
2019-03-28T11:41:28.590Z,11.20
2019-03-28T11:43:58.175Z,11.23
2019-03-28T11:46:27.719Z,11.44
2019-03-28T11:48:57.231Z,11.28
2019-03-28T11:51:26.556Z,11.36
2019-03-28T11:53:56.194Z,11.41
2019-03-28T11:56:25.726Z,11.44
2019-03-28T11:58:55.272Z,11.23
2019-03-28T12:01:24.578Z,11.15
2019-03-28T12:03:54.062Z,11.08
2019-03-28T12:06:23.658Z,10.94
2019-03-28T12:08:55.822Z,10.99
2019-03-28T12:11:23.901Z,11.02
2019-03-28T12:13:53.117Z,10.88
2019-03-28T12:16:22.715Z,10.94
2019-03-28T12:18:52.227Z,10.98
2019-03-28T12:21:21.548Z,10.85
2019-03-28T12:23:50.788Z,10.94
2019-03-28T12:26:20.338Z,10.93
2019-03-28T12:28:50.099Z,10.81
2019-03-28T12:31:20.218Z,10.86
2019-03-28T12:33:49.448Z,10.81
2019-03-28T12:36:19.415Z,10.91
2019-03-28T12:38:48.872Z,11.00
2019-03-28T12:41:18.365Z,11.07
2019-03-28T12:43:47.591Z,11.10
2019-03-28T12:46:17.369Z,11.04
2019-03-28T12:48:46.840Z,10.99
2019-03-28T12:51:16.103Z,10.96
2019-03-28T12:53:45.601Z,11.00
2019-03-28T12:56:16.162Z,11.03
2019-03-28T12:58:45.664Z,10.92
2019-03-28T13:01:15.139Z,10.94
2019-03-28T13:03:46.119Z,10.98
2019-03-28T13:06:16.126Z,10.99
2019-03-28T13:08:45.731Z,11.04
2019-03-28T13:11:15.611Z,11.04
2019-03-28T13:13:45.138Z,11.00
2019-03-28T13:16:14.608Z,11.11
2019-03-28T13:18:44.358Z,11.17
2019-03-28T13:21:14.279Z,11.02
2019-03-28T13:23:44.112Z,11.05
2019-03-28T13:26:13.625Z,11.17
2019-03-28T13:28:43.645Z,11.29
2019-03-28T13:31:13.397Z,11.05
2019-03-28T13:33:42.955Z,11.02
2019-03-28T13:36:12.169Z,10.91
2019-03-28T13:38:41.991Z,10.91
2019-03-28T13:41:11.493Z,10.83
2019-03-28T13:43:40.963Z,10.74
2019-03-28T13:46:10.459Z,10.68
2019-03-28T13:48:40.191Z,10.87
2019-03-28T13:51:09.435Z,10.78
2019-03-28T13:53:40.095Z,10.92
2019-03-28T13:56:09.669Z,10.89
2019-03-28T13:58:39.453Z,10.89
2019-03-28T14:01:09.162Z,10.87
2019-03-28T14:03:38.678Z,10.91
2019-03-28T14:06:08.734Z,11.00
2019-03-28T14:08:37.959Z,11.04
2019-03-28T14:11:07.808Z,10.86
2019-03-28T14:13:37.555Z,10.83
2019-03-28T14:16:07.041Z,10.74
2019-03-28T14:18:36.520Z,10.69
2019-03-28T14:21:06.084Z,10.79
2019-03-28T14:23:35.313Z,10.72
2019-03-28T14:26:04.877Z,10.74
2019-03-28T14:28:34.106Z,10.70
2019-03-28T14:31:03.325Z,10.82
2019-03-28T14:33:32.781Z,10.86
2019-03-28T14:36:02.029Z,10.91
2019-03-28T14:38:31.793Z,10.87
2019-03-28T14:41:01.060Z,10.81
2019-03-28T14:43:30.398Z,10.73
2019-03-28T14:45:59.890Z,10.77
2019-03-28T14:48:29.127Z,10.85
2019-03-28T14:50:58.356Z,10.82
2019-03-28T14:53:28.733Z,10.80
2019-03-28T14:55:59.317Z,10.69
2019-03-28T14:58:29.633Z,10.79
2019-03-28T15:00:58.968Z,10.88
2019-03-28T15:03:28.186Z,10.73
2019-03-28T15:05:58.554Z,10.65
2019-03-28T15:08:27.986Z,10.82
2019-03-28T15:10:57.564Z,10.82
2019-03-28T15:13:27.390Z,10.87
2019-03-28T15:15:56.637Z,10.88
2019-03-28T15:18:26.213Z,10.77
2019-03-28T15:20:55.887Z,10.82
2019-03-28T15:23:25.468Z,10.84
2019-03-28T15:25:55.084Z,10.81
2019-03-28T15:28:24.402Z,10.93
2019-03-28T15:30:53.694Z,11.06
2019-03-28T15:33:23.023Z,11.01
2019-03-28T15:35:52.832Z,10.93
2019-03-28T15:38:22.063Z,10.97
2019-03-28T15:40:51.632Z,10.91
2019-03-28T15:43:21.143Z,11.00
2019-03-28T15:45:51.318Z,10.86
2019-03-28T15:48:20.567Z,10.90
2019-03-28T15:50:49.811Z,10.89
2019-03-28T15:53:19.395Z,10.86
2019-03-28T15:55:48.742Z,10.83
2019-03-28T15:58:23.412Z,10.72
2019-03-28T16:00:49.469Z,10.95
2019-03-28T16:03:18.947Z,10.86
2019-03-28T16:05:58.232Z,10.68
2019-03-28T16:08:19.435Z,10.81
2019-03-28T16:10:49.182Z,10.81
2019-03-28T16:13:18.661Z,10.60
2019-03-28T16:15:48.180Z,10.51
2019-03-28T16:18:17.427Z,10.65
2019-03-28T16:20:47.356Z,10.79
2019-03-28T16:23:16.635Z,10.85
2019-03-28T16:25:46.387Z,10.90
2019-03-28T16:28:15.874Z,10.87
2019-03-28T16:30:45.127Z,10.96
2019-03-28T16:33:14.358Z,10.94
2019-03-28T16:35:43.871Z,10.89
2019-03-28T16:38:13.178Z,10.84
2019-03-28T16:40:42.698Z,10.76
2019-03-28T16:43:11.995Z,10.85
2019-03-28T16:45:41.833Z,10.79
2019-03-28T16:48:11.065Z,10.77
2019-03-28T16:50:40.350Z,10.67
2019-03-28T16:53:09.893Z,10.59
2019-03-28T16:55:39.801Z,10.57
2019-03-28T16:58:09.172Z,10.65
2019-03-28T17:00:39.468Z,10.63
2019-03-28T17:03:09.682Z,10.58
2019-03-28T17:05:39.258Z,10.51
2019-03-28T17:08:08.729Z,10.49
2019-03-28T17:11:02.994Z,10.54
2019-03-28T17:13:32.315Z,10.54
2019-03-28T17:16:01.590Z,10.51
2019-03-28T17:18:31.390Z,10.55
2019-03-28T17:21:01.652Z,10.40
2019-03-28T17:23:31.211Z,10.29
2019-03-28T17:26:00.495Z,10.39
2019-03-28T17:28:30.472Z,10.41
2019-03-28T17:31:00.352Z,10.50
2019-03-28T17:33:29.839Z,10.53
2019-03-28T17:35:59.618Z,10.46
2019-03-28T17:38:28.997Z,10.45
2019-03-28T17:40:58.483Z,10.37
2019-03-28T17:43:27.740Z,10.31
2019-03-28T17:45:56.986Z,10.34
2019-03-28T17:48:28.521Z,10.36
2019-03-28T17:50:57.505Z,10.37
2019-03-28T17:53:26.974Z,10.35
2019-03-28T17:55:56.216Z,10.16
2019-03-28T17:58:25.429Z,10.02
2019-03-28T18:00:54.734Z,10.05
2019-03-28T18:03:31.151Z,9.99
2019-03-28T18:05:58.271Z,9.96
2019-03-28T18:08:26.567Z,9.92
2019-03-28T18:10:56.205Z,9.86
2019-03-28T18:13:25.372Z,9.89
2019-03-28T18:15:54.885Z,9.86
2019-03-28T18:18:24.101Z,9.85
2019-03-28T18:20:53.813Z,9.86
2019-03-28T18:23:23.758Z,9.88
2019-03-28T18:25:53.183Z,9.80
2019-03-28T18:28:23.254Z,9.81
2019-03-28T18:30:52.491Z,9.82
2019-03-28T18:33:21.966Z,9.81
2019-03-28T18:35:51.454Z,9.80
2019-03-28T18:38:20.929Z,9.80
2019-03-28T18:40:50.687Z,9.66
2019-03-28T18:43:19.915Z,9.67
2019-03-28T18:45:49.153Z,9.67
2019-03-28T18:48:29.052Z,9.70
2019-03-28T18:50:49.510Z,9.62
2019-03-28T18:53:19.000Z,9.67
2019-03-28T18:55:48.311Z,9.72
2019-03-28T18:58:17.819Z,9.65
2019-03-28T19:00:48.363Z,9.66
2019-03-28T19:03:17.878Z,9.53
2019-03-28T19:05:48.692Z,9.54
2019-03-28T19:08:18.549Z,9.51
2019-03-28T19:10:50.747Z,9.51
2019-03-28T19:13:18.769Z,9.49
2019-03-28T19:15:47.995Z,9.55
2019-03-28T19:18:17.499Z,9.53
2019-03-28T19:20:46.724Z,9.43
2019-03-28T19:23:16.445Z,9.38
2019-03-28T19:25:47.136Z,9.41
2019-03-28T19:28:27.959Z,9.32
2019-03-28T19:30:48.036Z,9.22
2019-03-28T19:33:17.263Z,9.19
2019-03-28T19:35:47.655Z,9.14
2019-03-28T19:38:17.385Z,9.09
2019-03-28T19:40:46.949Z,9.03
2019-03-28T19:43:21.048Z,9.03
2019-03-28T19:45:47.640Z,8.99
2019-03-28T19:48:16.966Z,8.93
2019-03-28T19:50:46.458Z,8.95
2019-03-28T19:53:16.153Z,9.00
2019-03-28T19:55:45.392Z,9.06
2019-03-28T19:58:14.981Z,9.14
2019-03-28T20:00:44.616Z,9.11
2019-03-28T20:03:14.114Z,9.11
2019-03-28T20:05:48.091Z,9.13
2019-03-28T20:08:16.288Z,9.14
2019-03-28T20:10:45.923Z,9.03
2019-03-28T20:13:15.657Z,8.94
2019-03-28T20:15:44.880Z,9.09
2019-03-28T20:18:14.356Z,9.09
2019-03-28T20:20:44.088Z,9.11
2019-03-28T20:23:13.560Z,9.01
2019-03-28T20:25:43.102Z,8.95
2019-03-28T20:28:14.403Z,8.94
2019-03-28T20:30:43.781Z,8.93
2019-03-28T20:33:13.233Z,8.92
2019-03-28T20:35:42.721Z,8.88
2019-03-28T20:38:11.940Z,8.94
2019-03-28T20:40:43.328Z,8.97
2019-03-28T20:43:12.376Z,8.97
2019-03-28T20:45:41.591Z,8.99
2019-03-28T20:48:10.815Z,8.96
2019-03-28T20:50:40.115Z,8.93
2019-03-28T20:53:09.818Z,8.87
2019-03-28T20:55:39.083Z,8.81
2019-03-28T20:58:08.555Z,8.80
2019-03-28T21:00:40.932Z,8.80
2019-03-28T21:03:11.267Z,8.76
2019-03-28T21:05:41.606Z,8.68
2019-03-28T21:08:11.153Z,8.56
2019-03-28T21:10:41.559Z,8.56
2019-03-28T21:13:11.165Z,8.52
2019-03-28T21:15:40.659Z,8.39
2019-03-28T21:18:09.931Z,8.46
2019-03-28T21:20:39.795Z,8.58
2019-03-28T21:23:09.363Z,8.52
2019-03-28T21:25:39.010Z,8.46
2019-03-28T21:28:08.612Z,8.49
2019-03-28T21:30:47.162Z,8.54
2019-03-28T21:33:09.330Z,8.64
2019-03-28T21:35:39.208Z,8.62
2019-03-28T21:38:09.264Z,8.66
2019-03-28T21:40:38.565Z,8.66
2019-03-28T21:43:08.786Z,8.49
2019-03-28T21:45:38.067Z,8.49
2019-03-28T21:48:07.776Z,8.43
2019-03-28T21:50:38.271Z,8.43
2019-03-28T21:53:07.530Z,8.48
2019-03-28T21:55:37.135Z,8.46
2019-03-28T21:58:07.701Z,8.32
2019-03-28T22:00:37.551Z,8.32
2019-03-28T22:03:06.774Z,8.29
2019-03-28T22:05:36.278Z,8.22
2019-03-28T22:08:06.932Z,8.11
2019-03-28T22:10:36.518Z,8.05
2019-03-28T22:13:06.333Z,8.01
2019-03-28T22:15:35.643Z,7.98
2019-03-28T22:18:05.210Z,7.93
2019-03-28T22:20:36.064Z,7.93
2019-03-28T22:23:05.445Z,7.89
2019-03-28T22:25:34.880Z,7.93
2019-03-28T22:28:05.064Z,8.00
2019-03-28T22:30:34.357Z,8.14
2019-03-28T22:33:04.972Z,8.19
2019-03-28T22:35:34.510Z,8.23
2019-03-28T22:38:04.041Z,8.25
2019-03-28T22:40:33.608Z,8.27
2019-03-28T22:43:03.119Z,8.36
2019-03-28T22:45:32.728Z,8.42
2019-03-28T22:48:10.812Z,8.55
2019-03-28T22:50:32.938Z,8.55
2019-03-28T22:53:02.767Z,8.63
2019-03-28T22:55:32.529Z,8.63
2019-03-28T22:58:03.469Z,8.57
2019-03-28T23:00:44.940Z,8.59
2019-03-28T23:03:15.661Z,8.50
2019-03-28T23:05:45.066Z,8.48
2019-03-28T23:08:14.604Z,8.26
2019-03-28T23:10:44.164Z,8.33
2019-03-28T23:13:13.389Z,8.20
2019-03-28T23:15:43.134Z,8.22
2019-03-28T23:18:13.487Z,8.23
2019-03-28T23:20:43.001Z,8.16
2019-03-28T23:23:12.480Z,8.21
2019-03-28T23:25:41.968Z,8.11
2019-03-28T23:28:11.478Z,7.99
2019-03-28T23:30:40.650Z,7.58
2019-03-28T23:33:11.223Z,7.58
2019-03-28T23:35:41.004Z,7.49
2019-03-28T23:38:10.557Z,7.40
2019-03-28T23:40:40.058Z,7.36
2019-03-28T23:43:09.925Z,7.32
2019-03-28T23:45:39.677Z,7.31
2019-03-28T23:48:09.158Z,7.34
2019-03-28T23:50:38.923Z,7.34
2019-03-28T23:53:08.981Z,7.37
2019-03-28T23:55:38.750Z,7.36
2019-03-28T23:58:08.483Z,7.39
